Hargill, Texas
Current Conditions -  °F | °C
As of 5:15 PM on Saturday 25 Oct 2014 (Local Time) from KEBG Reporting Station
Clear Clear  
Wind Chill: 87°   Ceiling: Unl
Heat Index: 87°   Visibility: 10mi
Dew Point: 59°   Wind: 8mph
Humidity: 39%   Direction: 60°ENE
Pressure: 30.07"   Gusts: NA
Location:  26.44°N, 98.01°W
Report Text: KEBG 252215Z AUTO 06007KT 10SM CLR 30/15 A3007 RMK AO2 T03040150
Loading
Personal Weather Stations






























Interactive Weather Map
Tropical Storm Tracking
New forecast layout! Learn more

10-Day Weather Forecast

Advertisements
Track Severe Weather on mobile